Time;durP1;ratioP1;P1;durP2;ratioP2;P2;SDS_P1;SDS_P2;PMS_P1;PMS_P2;Temp;Humidity;BMP_temperature;BMP_pressure;BME280_temperature;BME280_humidity;BME280_pressure;Samples;Min_cycle;Max_cycle;Signal;HPM_P1;HPM_P2
2022/03/05 00:02:17;;;;;;;0.90;0.90;;;-6.90;99.90;;;;;;5090991;28;20219;-73
2022/03/05 00:04:43;;;;;;;1.00;1.00;;;-6.90;99.90;;;;;;5089769;28;20292;-73
2022/03/05 00:07:09;;;;;;;1.00;1.00;;;-6.90;99.90;;;;;;5108953;28;20272;-73
2022/03/05 00:09:35;;;;;;;1.00;1.00;;;-6.80;99.90;;;;;;5109139;28;20199;-74
2022/03/05 00:12:01;;;;;;;1.00;1.00;;;-6.70;99.90;;;;;;5107265;28;20197;-74
2022/03/05 00:14:26;;;;;;;1.00;1.00;;;-6.70;99.90;;;;;;5107206;28;20539;-72
2022/03/05 00:16:52;;;;;;;0.90;0.90;;;-6.70;99.90;;;;;;5108685;28;20184;-74
2022/03/05 00:19:18;;;;;;;1.00;1.00;;;-6.80;99.90;;;;;;5074488;28;20283;-73
2022/03/05 00:21:43;;;;;;;1.00;1.00;;;-6.80;99.90;;;;;;5090938;28;20187;-73
2022/03/05 00:24:09;;;;;;;0.97;0.97;;;-6.90;99.90;;;;;;5102324;28;20706;-73
2022/03/05 00:26:34;;;;;;;0.90;0.90;;;-7.00;99.90;;;;;;5070213;28;20256;-73
2022/03/05 00:29:00;;;;;;;0.90;0.90;;;-7.10;99.90;;;;;;5070381;28;20298;-73
2022/03/05 00:31:26;;;;;;;1.00;1.00;;;-7.20;99.90;;;;;;5070373;28;20766;-73
2022/03/05 00:33:51;;;;;;;0.80;0.80;;;-7.20;99.90;;;;;;5077732;28;20270;-73
2022/03/05 00:36:17;;;;;;;1.00;1.00;;;-7.30;99.90;;;;;;5080421;28;20649;-73
2022/03/05 00:38:43;;;;;;;1.00;1.00;;;-7.30;99.90;;;;;;5087203;28;20571;-73
2022/03/05 00:41:09;;;;;;;1.00;1.00;;;-7.30;99.90;;;;;;5081369;28;20573;-73
2022/03/05 00:43:34;;;;;;;4.20;2.03;;;-7.30;99.90;;;;;;5080957;28;20693;-73
2022/03/05 00:46:00;;;;;;;1.00;1.00;;;-7.30;99.90;;;;;;5087223;28;20208;-73
2022/03/05 00:48:26;;;;;;;0.90;0.90;;;-7.20;99.90;;;;;;5086792;28;20203;-73
2022/03/05 00:50:52;;;;;;;1.00;1.00;;;-7.10;99.90;;;;;;5089622;28;20566;-73
2022/03/05 00:53:18;;;;;;;1.00;1.00;;;-7.10;99.90;;;;;;5088047;28;20224;-73
2022/03/05 00:55:44;;;;;;;0.93;0.93;;;-7.10;99.90;;;;;;5087414;28;20699;-73
2022/03/05 00:58:10;;;;;;;0.90;0.90;;;-7.20;99.90;;;;;;5088396;28;20655;-73
2022/03/05 01:00:36;;;;;;;0.90;0.90;;;-7.20;99.90;;;;;;5069658;28;20204;-73
2022/03/05 01:03:02;;;;;;;1.53;1.43;;;-7.30;99.90;;;;;;5070688;28;20220;-73
2022/03/05 01:05:28;;;;;;;1.00;1.00;;;-7.30;99.90;;;;;;5089145;28;20663;-73
2022/03/05 01:07:54;;;;;;;0.80;0.80;;;-7.40;99.90;;;;;;5087762;28;20685;-72
2022/03/05 01:10:20;;;;;;;0.90;0.90;;;-7.40;99.90;;;;;;5071549;28;20558;-73
2022/03/05 01:12:45;;;;;;;0.90;0.90;;;-7.40;99.90;;;;;;5086921;28;20658;-73
2022/03/05 01:15:11;;;;;;;1.00;1.00;;;-7.40;99.90;;;;;;5057532;28;20207;-73
2022/03/05 01:17:37;;;;;;;1.00;1.00;;;-7.50;99.90;;;;;;5086660;28;20201;-73
2022/03/05 01:20:03;;;;;;;1.00;1.00;;;-7.50;99.90;;;;;;5084010;28;20292;-73
2022/03/05 01:22:29;;;;;;;1.00;1.00;;;-7.50;99.90;;;;;;5068511;28;20571;-73
2022/03/05 01:24:54;;;;;;;1.00;1.00;;;-7.40;99.90;;;;;;5079439;28;20220;-73
2022/03/05 01:27:22;;;;;;;1.00;1.00;;;-7.40;99.90;;;;;;5069377;28;20218;-73
2022/03/05 01:29:48;;;;;;;0.90;0.90;;;-7.40;99.90;;;;;;5062723;28;20298;-72
2022/03/05 01:32:14;;;;;;;1.00;1.00;;;-7.40;99.90;;;;;;5076515;28;20200;-73
2022/03/05 01:34:39;;;;;;;1.00;1.00;;;-7.40;99.90;;;;;;5087830;28;20578;-72
2022/03/05 01:37:05;;;;;;;0.90;0.90;;;-7.40;99.90;;;;;;5068582;28;20204;-72
2022/03/05 01:39:31;;;;;;;0.90;0.90;;;-7.50;99.90;;;;;;5088733;28;20620;-72
2022/03/05 01:41:57;;;;;;;0.90;0.90;;;-7.50;99.90;;;;;;5087887;28;20233;-71
2022/03/05 01:44:23;;;;;;;0.90;0.90;;;-7.50;99.90;;;;;;5086345;28;20595;-73
2022/03/05 01:46:49;;;;;;;0.90;0.90;;;-7.60;99.90;;;;;;5087309;28;20227;-72
2022/03/05 01:49:15;;;;;;;0.90;0.90;;;-7.60;99.90;;;;;;5088292;28;20201;-72
2022/03/05 01:51:42;;;;;;;0.93;0.93;;;-7.60;99.90;;;;;;5070768;28;20536;-72
2022/03/05 01:54:09;;;;;;;0.80;0.80;;;-7.70;99.90;;;;;;5089592;28;20203;-72
2022/03/05 01:56:37;;;;;;;1.00;1.00;;;-7.80;99.90;;;;;;5088119;28;20207;-72
2022/03/05 01:59:03;;;;;;;1.00;1.00;;;-7.80;99.90;;;;;;5087207;28;20207;-72
2022/03/05 02:01:30;;;;;;;0.90;0.90;;;-7.80;99.90;;;;;;5088666;28;20675;-72
2022/03/05 02:03:56;;;;;;;1.93;1.83;;;-7.90;99.90;;;;;;5068328;28;20235;-72
2022/03/05 02:06:24;;;;;;;0.90;0.90;;;-7.90;99.90;;;;;;5066121;28;20200;-73
2022/03/05 02:08:50;;;;;;;0.93;0.93;;;-7.90;99.90;;;;;;5087621;28;20234;-73
2022/03/05 02:11:16;;;;;;;0.90;0.90;;;-8.00;99.90;;;;;;5091468;28;20196;-72
2022/03/05 02:13:42;;;;;;;0.90;0.90;;;-8.00;99.90;;;;;;5090841;28;20204;-72
2022/03/05 02:16:08;;;;;;;0.87;0.87;;;-8.10;99.90;;;;;;5085169;28;20200;-72
2022/03/05 02:18:34;;;;;;;0.90;0.90;;;-8.10;99.90;;;;;;5092022;28;20281;-73
2022/03/05 02:21:00;;;;;;;0.80;0.80;;;-8.10;99.90;;;;;;5074352;28;20203;-73
2022/03/05 02:23:25;;;;;;;0.90;0.90;;;-8.10;99.90;;;;;;5090282;28;20283;-72
2022/03/05 02:25:55;;;;;;;0.90;0.90;;;-8.20;99.90;;;;;;5091124;28;20686;-73
2022/03/05 02:28:25;;;;;;;1.00;1.00;;;-8.20;99.90;;;;;;5108989;28;20286;-73
2022/03/05 02:30:51;;;;;;;0.93;0.93;;;-8.20;99.90;;;;;;5106373;28;20208;-73
2022/03/05 02:33:18;;;;;;;0.90;0.90;;;-8.20;99.90;;;;;;5097166;28;20614;-73
2022/03/05 02:35:44;;;;;;;0.90;0.90;;;-8.20;99.90;;;;;;5110964;28;20382;-72
2022/03/05 02:38:15;;;;;;;1.00;1.00;;;-8.20;99.90;;;;;;5108353;28;20618;-72
2022/03/05 02:40:42;;;;;;;1.00;1.00;;;-8.10;99.90;;;;;;5095403;28;20580;-72
2022/03/05 02:43:09;;;;;;;0.90;0.90;;;-8.10;99.90;;;;;;5091689;28;20675;-72
2022/03/05 02:45:35;;;;;;;1.00;1.00;;;-8.10;99.90;;;;;;5110474;28;20209;-72
2022/03/05 02:48:04;;;;;;;0.90;0.90;;;-8.20;99.90;;;;;;5112124;28;20290;-71
2022/03/05 02:50:30;;;;;;;1.00;1.00;;;-8.20;99.90;;;;;;5112285;28;20202;-72
2022/03/05 02:52:56;;;;;;;0.93;0.93;;;-8.20;99.90;;;;;;5092685;28;20203;-71
2022/03/05 02:55:22;;;;;;;0.90;0.90;;;-8.20;99.90;;;;;;5074802;28;20197;-71
2022/03/05 02:57:47;;;;;;;1.97;1.87;;;-8.20;99.90;;;;;;5091336;28;20649;-73
2022/03/05 03:00:13;;;;;;;0.97;0.97;;;-8.10;99.90;;;;;;5106785;28;20211;-72
2022/03/05 03:02:39;;;;;;;0.90;0.90;;;-8.10;99.90;;;;;;5104570;28;20207;-73
2022/03/05 03:05:05;;;;;;;1.00;1.00;;;-8.10;99.90;;;;;;5109621;28;20255;-73
2022/03/05 03:07:31;;;;;;;1.00;1.00;;;-8.10;99.90;;;;;;5090892;28;20211;-74
2022/03/05 03:09:58;;;;;;;0.90;0.90;;;-8.20;99.90;;;;;;5109251;28;20210;-74
2022/03/05 03:12:25;;;;;;;0.90;0.90;;;-8.20;99.90;;;;;;5110253;28;20248;-72
2022/03/05 03:14:51;;;;;;;1.00;1.00;;;-8.30;99.90;;;;;;5109134;28;20196;-73
2022/03/05 03:17:17;;;;;;;0.90;0.90;;;-8.30;99.90;;;;;;5106493;28;20578;-72
2022/03/05 03:19:43;;;;;;;0.90;0.90;;;-8.40;99.90;;;;;;5083723;28;20195;-74
2022/03/05 03:22:09;;;;;;;1.00;1.00;;;-8.40;99.90;;;;;;5086532;28;20724;-72
2022/03/05 03:24:34;;;;;;;1.90;1.80;;;-8.40;99.90;;;;;;5097631;28;20302;-73
2022/03/05 03:27:00;;;;;;;0.90;0.90;;;-8.40;99.90;;;;;;5091753;28;20199;-72
2022/03/05 03:29:26;;;;;;;1.00;1.00;;;-8.50;99.90;;;;;;5109013;28;20199;-73
2022/03/05 03:31:52;;;;;;;1.10;1.10;;;-8.50;99.90;;;;;;5108936;28;20208;-72
2022/03/05 03:34:18;;;;;;;1.00;1.00;;;-8.50;99.90;;;;;;5108901;28;20414;-72
2022/03/05 03:36:44;;;;;;;1.00;1.00;;;-8.60;99.90;;;;;;5108753;28;20195;-72
2022/03/05 03:39:10;;;;;;;0.90;0.90;;;-8.60;99.90;;;;;;5112302;28;20202;-72
2022/03/05 03:41:36;;;;;;;1.00;1.00;;;-8.60;99.90;;;;;;5111971;28;20211;-72
2022/03/05 03:44:02;;;;;;;1.73;1.63;;;-8.60;99.90;;;;;;5110668;28;20211;-72
2022/03/05 03:46:27;;;;;;;0.90;0.90;;;-8.60;99.90;;;;;;5110458;28;20206;-72
2022/03/05 03:48:53;;;;;;;0.90;0.90;;;-8.60;99.90;;;;;;5092000;28;20211;-72
2022/03/05 03:51:19;;;;;;;0.90;0.90;;;-8.70;99.90;;;;;;5076272;28;20209;-72
2022/03/05 03:53:46;;;;;;;0.97;0.97;;;-8.70;99.90;;;;;;5106272;28;20650;-73
2022/03/05 03:56:13;;;;;;;1.00;1.00;;;-8.70;99.90;;;;;;5109505;28;20680;-73
2022/03/05 03:58:38;;;;;;;0.90;0.90;;;-8.80;99.90;;;;;;5109742;28;20222;-73
2022/03/05 04:01:04;;;;;;;0.90;0.90;;;-8.80;99.90;;;;;;5081344;28;20212;-72
2022/03/05 04:03:30;;;;;;;1.13;1.13;;;-8.80;99.90;;;;;;5087890;28;20200;-72
2022/03/05 04:05:55;;;;;;;0.90;0.90;;;-8.80;99.90;;;;;;5100091;28;20211;-72
2022/03/05 04:11:05;;;;;;;0.93;0.93;;;-8.80;99.90;;;;;;5109160;28;20210;-72
2022/03/05 04:13:31;;;;;;;0.90;0.90;;;-8.70;99.90;;;;;;5109017;28;20251;-72
2022/03/05 04:15:57;;;;;;;0.93;0.93;;;-8.70;99.90;;;;;;5100134;28;20204;-72
2022/03/05 04:18:22;;;;;;;1.00;1.00;;;-8.70;99.90;;;;;;5108196;28;20199;-72
2022/03/05 04:20:48;;;;;;;0.90;0.90;;;-8.70;99.90;;;;;;5089686;28;20221;-72
2022/03/05 04:23:13;;;;;;;0.90;0.90;;;-8.70;99.90;;;;;;5107120;28;20292;-72
2022/03/05 04:25:39;;;;;;;0.90;0.90;;;-8.80;99.90;;;;;;5088023;28;20680;-72
2022/03/05 04:28:05;;;;;;;1.00;1.00;;;-8.80;99.90;;;;;;5107798;28;20323;-72
2022/03/05 04:30:31;;;;;;;0.90;0.90;;;-8.80;99.90;;;;;;5109746;28;20271;-72
2022/03/05 04:32:57;;;;;;;1.00;1.00;;;-8.90;99.90;;;;;;5091758;28;20282;-72
2022/03/05 04:35:23;;;;;;;0.90;0.90;;;-8.90;99.90;;;;;;5091964;28;20207;-73
2022/03/05 04:37:50;;;;;;;1.00;1.00;;;-8.90;99.90;;;;;;5091451;28;20212;-73
2022/03/05 04:40:16;;;;;;;1.00;1.00;;;-8.70;99.90;;;;;;5107613;28;20207;-73
2022/03/05 04:42:42;;;;;;;1.00;1.00;;;-8.60;99.90;;;;;;5089441;28;20203;-73
2022/03/05 04:45:08;;;;;;;1.20;1.10;;;-8.60;99.90;;;;;;5108820;28;20207;-73
2022/03/05 04:47:35;;;;;;;1.00;1.00;;;-8.60;99.90;;;;;;5107338;28;20216;-72
2022/03/05 04:50:00;;;;;;;0.90;0.90;;;-8.70;99.90;;;;;;5089119;28;20687;-72
2022/03/05 04:52:26;;;;;;;0.90;0.90;;;-8.70;99.90;;;;;;5090100;28;20238;-72
2022/03/05 04:54:52;;;;;;;0.90;0.90;;;-8.80;99.90;;;;;;5089115;28;20573;-72
2022/03/05 04:57:19;;;;;;;1.00;1.00;;;-8.90;99.90;;;;;;5107340;28;20365;-72
2022/03/05 04:59:44;;;;;;;1.00;1.00;;;-8.90;99.90;;;;;;5089119;28;20352;-73
2022/03/05 05:02:10;;;;;;;0.90;0.90;;;-9.00;99.90;;;;;;5107230;28;20286;-72
2022/03/05 05:04:36;;;;;;;1.17;1.17;;;-9.00;99.90;;;;;;5108237;28;20218;-73
2022/03/05 05:07:02;;;;;;;0.90;0.90;;;-9.00;99.90;;;;;;5088892;28;20614;-73
2022/03/05 05:09:27;;;;;;;0.90;0.90;;;-9.00;99.90;;;;;;5108196;28;20208;-73
2022/03/05 05:11:53;;;;;;;0.97;0.97;;;-9.00;99.90;;;;;;5108183;28;20207;-73
2022/03/05 05:14:19;;;;;;;0.90;0.90;;;-9.10;99.90;;;;;;5107305;28;20204;-73
2022/03/05 05:16:44;;;;;;;1.00;1.00;;;-9.10;99.90;;;;;;5088222;28;20196;-73
2022/03/05 05:19:25;;;;;;;0.90;0.90;;;-9.00;99.90;;;;;;5079374;28;20607;-72
2022/03/05 05:21:59;;;;;;;0.90;0.90;;;-8.90;99.90;;;;;;5072877;28;20279;-73
2022/03/05 05:24:27;;;;;;;1.00;1.00;;;-8.90;99.90;;;;;;5073800;28;20234;-73
2022/03/05 05:26:56;;;;;;;0.90;0.90;;;-8.80;99.90;;;;;;5109229;28;20283;-73
2022/03/05 05:29:22;;;;;;;0.97;0.97;;;-8.80;99.90;;;;;;5109533;28;20287;-72
2022/03/05 05:31:49;;;;;;;1.10;1.10;;;-8.80;99.90;;;;;;5108181;28;20620;-72
2022/03/05 05:34:16;;;;;;;0.93;0.93;;;-8.80;99.90;;;;;;5090595;28;20325;-72
2022/03/05 05:36:42;;;;;;;0.97;0.97;;;-8.70;99.90;;;;;;5090610;28;20215;-72
2022/03/05 05:39:10;;;;;;;1.00;1.00;;;-8.70;99.90;;;;;;5089750;28;20191;-72
2022/03/05 05:41:37;;;;;;;1.00;1.00;;;-8.60;99.90;;;;;;5089575;28;20730;-73
2022/03/05 05:44:04;;;;;;;0.97;0.97;;;-8.60;99.90;;;;;;5108002;28;20227;-72
2022/03/05 05:46:30;;;;;;;1.00;1.00;;;-8.60;99.90;;;;;;5111854;28;20268;-73
2022/03/05 05:48:56;;;;;;;1.00;1.00;;;-8.70;99.90;;;;;;5092566;28;20608;-72
2022/03/05 05:51:27;;;;;;;1.00;1.00;;;-8.80;99.90;;;;;;5093651;28;20583;-72
2022/03/05 05:53:54;;;;;;;0.90;0.90;;;-8.80;99.90;;;;;;5111901;28;20187;-72
2022/03/05 05:56:19;;;;;;;0.90;0.90;;;-8.90;99.90;;;;;;5111758;28;20204;-72
2022/03/05 05:58:47;;;;;;;3.03;2.30;;;-9.00;99.90;;;;;;5103792;28;20200;-72
2022/03/05 06:01:12;;;;;;;0.90;0.90;;;-9.00;99.90;;;;;;5110618;28;20206;-73
2022/03/05 06:03:38;;;;;;;0.90;0.90;;;-9.10;99.90;;;;;;5103337;28;20283;-73
2022/03/05 06:06:04;;;;;;;0.90;0.90;;;-9.10;99.90;;;;;;5110681;28;20286;-72
2022/03/05 06:08:29;;;;;;;1.00;1.00;;;-9.10;99.90;;;;;;5091959;28;20195;-73
2022/03/05 06:10:57;;;;;;;0.90;0.90;;;-9.10;99.90;;;;;;5111435;28;20199;-72
2022/03/05 06:13:23;;;;;;;0.80;0.80;;;-9.10;99.90;;;;;;5091997;28;20302;-72
2022/03/05 06:15:48;;;;;;;0.90;0.90;;;-9.10;99.90;;;;;;5096200;28;20650;-72
2022/03/05 06:18:14;;;;;;;0.90;0.90;;;-9.10;99.90;;;;;;5112082;28;20204;-72
2022/03/05 06:20:40;;;;;;;1.57;1.47;;;-9.10;99.90;;;;;;5112178;28;20207;-72
2022/03/05 06:23:06;;;;;;;1.13;1.13;;;-9.10;99.90;;;;;;5105193;28;20204;-73
2022/03/05 06:25:32;;;;;;;3.47;3.17;;;-9.10;99.90;;;;;;5094129;28;20225;-73
2022/03/05 06:27:57;;;;;;;0.90;0.90;;;-9.00;99.90;;;;;;5091478;28;20243;-73
2022/03/05 06:30:23;;;;;;;0.90;0.90;;;-8.90;99.90;;;;;;5086751;28;20204;-73
2022/03/05 06:32:49;;;;;;;1.00;1.00;;;-8.90;99.90;;;;;;5086903;28;20207;-72
2022/03/05 06:35:15;;;;;;;1.00;1.00;;;-8.80;99.90;;;;;;5079989;28;20196;-72
2022/03/05 06:37:41;;;;;;;0.93;0.93;;;-8.60;99.90;;;;;;5105071;28;20248;-73
2022/03/05 06:40:11;;;;;;;0.90;0.90;;;-8.40;99.90;;;;;;5102357;28;20227;-72
2022/03/05 06:42:38;;;;;;;0.90;0.90;;;-8.30;99.90;;;;;;5091337;28;20314;-73
2022/03/05 06:45:30;;;;;;;0.90;0.90;;;-8.10;99.90;;;;;;5090625;28;20215;-74
2022/03/05 06:47:56;;;;;;;0.90;0.90;;;-7.90;99.90;;;;;;5089465;28;20685;-74
2022/03/05 06:50:22;;;;;;;1.00;1.00;;;-7.80;99.90;;;;;;5107702;28;20210;-73
2022/03/05 06:52:47;;;;;;;0.93;0.93;;;-7.70;99.90;;;;;;5092482;28;20227;-74
2022/03/05 06:55:15;;;;;;;1.00;1.00;;;-7.70;99.90;;;;;;5110580;28;20205;-74
2022/03/05 06:57:44;;;;;;;5.33;3.03;;;-7.70;99.90;;;;;;5101547;28;20200;-72
2022/03/05 07:00:13;;;;;;;0.83;0.83;;;-7.60;99.90;;;;;;5091206;28;20203;-73
2022/03/05 07:02:40;;;;;;;1.10;1.10;;;-7.50;99.90;;;;;;5092000;28;20614;-74
2022/03/05 07:05:06;;;;;;;1.00;1.00;;;-7.50;99.90;;;;;;5109564;28;20252;-74
2022/03/05 07:07:32;;;;;;;8.97;4.87;;;-7.40;99.90;;;;;;5107641;28;20702;-74
2022/03/05 07:09:57;;;;;;;0.93;0.93;;;-7.40;99.90;;;;;;5109555;28;20207;-74
2022/03/05 07:12:24;;;;;;;0.80;0.80;;;-7.30;99.90;;;;;;5089425;28;20212;-74
2022/03/05 07:14:50;;;;;;;0.90;0.90;;;-7.30;99.90;;;;;;5102416;28;20574;-74
2022/03/05 07:17:16;;;;;;;1.10;1.10;;;-7.10;99.90;;;;;;5105655;28;20196;-74
2022/03/05 07:19:42;;;;;;;1.13;1.13;;;-7.00;99.90;;;;;;5109525;28;20207;-73
2022/03/05 07:22:08;;;;;;;0.87;0.87;;;-7.00;99.90;;;;;;5082638;28;20190;-73
2022/03/05 07:24:33;;;;;;;0.90;0.90;;;-6.80;99.90;;;;;;5107631;28;20226;-74
2022/03/05 07:27:00;;;;;;;1.73;1.63;;;-6.70;99.90;;;;;;5091023;28;20200;-74
2022/03/05 07:29:25;;;;;;;0.90;0.90;;;-6.50;99.90;;;;;;5091641;28;20682;-75
2022/03/05 07:31:51;;;;;;;1.00;1.00;;;-6.40;99.90;;;;;;5077372;28;20249;-74
2022/03/05 07:34:17;;;;;;;1.00;1.00;;;-6.30;99.90;;;;;;5087060;28;20199;-73
2022/03/05 07:36:43;;;;;;;1.10;1.10;;;-6.10;99.90;;;;;;5113150;27;20298;-72
2022/03/05 07:39:09;;;;;;;0.90;0.90;;;-6.00;99.90;;;;;;5102196;28;20210;-73
2022/03/05 07:41:36;;;;;;;0.90;0.90;;;-5.80;99.90;;;;;;5090567;28;20207;-73
2022/03/05 07:44:03;;;;;;;0.90;0.90;;;-5.60;99.90;;;;;;5089388;28;20666;-73
2022/03/05 07:46:28;;;;;;;0.80;0.80;;;-5.30;99.90;;;;;;5105965;28;20206;-74
2022/03/05 07:48:54;;;;;;;0.73;0.73;;;-5.00;99.90;;;;;;5108240;28;20584;-73
2022/03/05 07:51:20;;;;;;;0.97;0.97;;;-4.80;99.90;;;;;;5108117;28;20194;-73
2022/03/05 07:53:45;;;;;;;0.90;0.90;;;-4.50;99.90;;;;;;5088906;28;20196;-73
2022/03/05 07:56:11;;;;;;;0.87;0.87;;;-4.30;99.90;;;;;;5089829;28;20198;-73
2022/03/05 07:58:37;;;;;;;0.80;0.80;;;-4.10;99.90;;;;;;5089655;28;20197;-74
2022/03/05 08:01:03;;;;;;;1.00;1.00;;;-3.90;99.90;;;;;;5107951;28;20215;-72
2022/03/05 08:03:31;;;;;;;0.80;0.80;;;-3.70;99.90;;;;;;5104421;28;20212;-73
2022/03/05 08:05:56;;;;;;;0.87;0.87;;;-3.50;99.90;;;;;;5109422;28;20594;-74
2022/03/05 08:08:29;;;;;;;0.90;0.90;;;-3.30;99.90;;;;;;5106755;28;20207;-72
2022/03/05 08:10:56;;;;;;;1.13;1.13;;;-3.00;99.90;;;;;;5090071;28;20670;-73
2022/03/05 08:13:27;;;;;;;0.80;0.80;;;-2.80;99.90;;;;;;5089909;28;20286;-73
2022/03/05 08:15:53;;;;;;;3.17;1.17;;;-2.60;99.90;;;;;;5105194;28;20728;-72
2022/03/05 08:18:20;;;;;;;0.80;0.80;;;-2.40;99.90;;;;;;5106257;28;20227;-73
2022/03/05 08:20:46;;;;;;;1.00;1.00;;;-2.20;99.90;;;;;;5105966;28;20244;-73
2022/03/05 08:23:12;;;;;;;0.90;0.90;;;-1.90;99.90;;;;;;5089324;28;20666;-73
2022/03/05 08:25:38;;;;;;;0.80;0.80;;;-1.70;99.90;;;;;;5105926;28;20302;-74
2022/03/05 08:28:04;;;;;;;0.80;0.80;;;-1.40;99.90;;;;;;5107567;28;20306;-73
2022/03/05 08:30:30;;;;;;;0.80;0.80;;;-1.20;99.90;;;;;;5107104;28;20221;-74
2022/03/05 08:32:55;;;;;;;0.80;0.80;;;-0.90;99.90;;;;;;5087834;28;20203;-74
2022/03/05 08:35:21;;;;;;;0.80;0.80;;;-0.70;99.90;;;;;;5098531;28;20207;-75
2022/03/05 08:37:48;;;;;;;0.70;0.70;;;-0.50;99.90;;;;;;5090532;28;20260;-74
2022/03/05 08:40:15;;;;;;;0.80;0.80;;;-0.40;99.90;;;;;;5096818;28;20210;-75
2022/03/05 08:42:41;;;;;;;0.80;0.80;;;-0.20;99.90;;;;;;5088018;28;20693;-73
2022/03/05 08:45:08;;;;;;;0.80;0.80;;;0.00;99.90;;;;;;5107404;28;20683;-75
2022/03/05 08:47:34;;;;;;;0.77;0.77;;;0.30;99.90;;;;;;5105581;28;20268;-75
2022/03/05 08:50:00;;;;;;;0.70;0.70;;;0.60;99.90;;;;;;5107008;28;20195;-75
2022/03/05 08:52:25;;;;;;;1.33;1.23;;;0.80;99.90;;;;;;5106969;28;20266;-75
2022/03/05 08:54:51;;;;;;;0.80;0.80;;;1.10;99.90;;;;;;5087542;28;20204;-75
2022/03/05 08:57:17;;;;;;;0.88;0.88;;;1.40;99.90;;;;;;5087936;28;20227;-76
2022/03/05 08:59:43;;;;;;;0.80;0.80;;;1.70;99.90;;;;;;5059572;28;20203;-77
2022/03/05 09:02:08;;;;;;;0.90;0.90;;;1.90;99.90;;;;;;5089178;28;20196;-78
2022/03/05 09:04:34;;;;;;;0.80;0.80;;;2.10;99.90;;;;;;5105755;28;20286;-74
2022/03/05 09:07:01;;;;;;;1.40;1.30;;;2.40;99.90;;;;;;5090369;28;20284;-73
2022/03/05 09:09:27;;;;;;;1.00;1.00;;;2.50;99.90;;;;;;5087338;28;20211;-73
2022/03/05 09:11:52;;;;;;;0.60;0.60;;;2.40;99.90;;;;;;5105644;28;20214;-71
2022/03/05 09:14:18;;;;;;;0.70;0.70;;;2.40;99.90;;;;;;5100862;28;20199;-74
2022/03/05 09:16:44;;;;;;;0.70;0.70;;;2.70;99.90;;;;;;5102550;28;20268;-74
2022/03/05 09:19:10;;;;;;;0.75;0.75;;;3.10;99.90;;;;;;5107979;28;20256;-73
2022/03/05 09:21:37;;;;;;;0.80;0.80;;;3.30;99.90;;;;;;5071654;28;20204;-73
2022/03/05 09:24:04;;;;;;;1.00;1.00;;;3.50;99.90;;;;;;5097669;28;20618;-74
2022/03/05 09:26:30;;;;;;;0.80;0.80;;;3.70;99.90;;;;;;5071928;28;20694;-74
2022/03/05 09:28:56;;;;;;;0.90;0.90;;;3.80;99.90;;;;;;5110665;27;20641;-73
2022/03/05 09:31:21;;;;;;;0.85;0.85;;;3.90;99.90;;;;;;5093508;28;20196;-74
2022/03/05 09:33:47;;;;;;;1.65;1.55;;;3.80;99.90;;;;;;5085700;28;20535;-73
2022/03/05 09:36:13;;;;;;;0.80;0.80;;;3.90;99.90;;;;;;5067980;28;20193;-73
2022/03/05 09:38:38;;;;;;;0.80;0.80;;;4.20;99.90;;;;;;5091368;28;20218;-72
2022/03/05 09:41:06;;;;;;;1.10;1.05;;;4.60;99.90;;;;;;5079979;28;20215;-72
2022/03/05 09:43:32;;;;;;;0.85;0.85;;;4.80;99.90;;;;;;5070508;28;20721;-72
2022/03/05 09:45:59;;;;;;;0.60;0.60;;;4.60;99.90;;;;;;5087505;28;20211;-73
2022/03/05 09:48:27;;;;;;;0.80;0.80;;;4.90;99.90;;;;;;5097334;28;20208;-73
2022/03/05 09:50:53;;;;;;;0.90;0.90;;;4.90;99.90;;;;;;5106619;28;20196;-73
2022/03/05 09:53:21;;;;;;;0.90;0.90;;;5.20;99.90;;;;;;5099035;28;20235;-73
2022/03/05 09:55:49;;;;;;;0.70;0.70;;;5.50;99.90;;;;;;5102877;28;20205;-73
2022/03/05 09:58:15;;;;;;;0.90;0.90;;;5.70;99.90;;;;;;5085524;28;20744;-72
2022/03/05 10:00:41;;;;;;;0.88;0.88;;;5.50;99.90;;;;;;5086053;28;20304;-73
2022/03/05 10:03:07;;;;;;;0.80;0.80;;;5.80;99.90;;;;;;5081271;28;20316;-72
2022/03/05 10:05:34;;;;;;;0.80;0.80;;;6.00;99.90;;;;;;5110360;28;20200;-72
2022/03/05 10:08:00;;;;;;;0.90;0.85;;;6.10;99.90;;;;;;5094708;28;20199;-72
2022/03/05 10:10:26;;;;;;;0.80;0.80;;;6.20;99.90;;;;;;5108476;28;20693;-73
2022/03/05 10:12:52;;;;;;;1.20;1.17;;;6.30;99.90;;;;;;5076111;28;20192;-73
2022/03/05 10:15:18;;;;;;;0.70;0.70;;;6.60;99.90;;;;;;5100190;28;20744;-73
2022/03/05 10:17:54;;;;;;;0.80;0.80;;;6.30;99.90;;;;;;5074600;28;20228;-73
2022/03/05 10:20:32;;;;;;;0.80;0.80;;;6.10;99.90;;;;;;5074900;28;20642;-74
2022/03/05 10:23:09;;;;;;;0.90;0.90;;;6.20;99.90;;;;;;5077355;28;20196;-73
2022/03/05 10:25:43;;;;;;;0.80;0.80;;;6.30;99.90;;;;;;5088819;28;20221;-74
2022/03/05 10:28:12;;;;;;;0.80;0.80;;;6.70;99.90;;;;;;5074179;28;20617;-74
2022/03/05 10:30:43;;;;;;;0.70;0.70;;;7.40;99.90;;;;;;5086952;28;20259;-74
2022/03/05 10:33:35;;;;;;;1.05;1.02;;;7.80;99.90;;;;;;5075225;28;20201;-74
2022/03/05 10:36:18;;;;;;;0.70;0.70;;;7.70;99.90;;;;;;5075857;28;20205;-74
2022/03/05 10:38:54;;;;;;;0.60;0.60;;;7.90;99.90;;;;;;5071917;28;20659;-75
2022/03/05 10:41:37;;;;;;;0.70;0.70;;;8.10;99.90;;;;;;5073083;28;20309;-76
2022/03/05 10:44:15;;;;;;;1.05;1.00;;;7.70;99.90;;;;;;5092096;28;20611;-77
2022/03/05 10:46:46;;;;;;;4.68;1.42;;;8.00;99.90;;;;;;5089051;28;20203;-79
2022/03/05 10:49:18;;;;;;;0.70;0.70;;;7.80;99.90;;;;;;5071072;28;20211;-78
2022/03/05 10:51:47;;;;;;;0.70;0.70;;;8.00;99.90;;;;;;5087687;28;20219;-78
2022/03/05 10:54:29;;;;;;;0.60;0.60;;;8.20;99.90;;;;;;5083409;28;20196;-78
2022/03/05 10:57:07;;;;;;;0.70;0.70;;;8.50;99.90;;;;;;5092406;28;20192;-78
2022/03/05 10:59:41;;;;;;;0.80;0.80;;;8.70;99.90;;;;;;5063830;28;20201;-77
2022/03/05 11:02:08;;;;;;;0.70;0.70;;;8.70;99.90;;;;;;5088508;28;20205;-78
2022/03/05 11:04:36;;;;;;;0.70;0.70;;;8.10;99.90;;;;;;5083657;28;20200;-76
2022/03/05 11:07:03;;;;;;;0.77;0.77;;;8.60;99.90;;;;;;5070762;28;20234;-77
2022/03/05 11:09:34;;;;;;;0.70;0.70;;;8.70;99.90;;;;;;5089643;28;20713;-75
2022/03/05 11:12:00;;;;;;;0.70;0.70;;;8.80;99.90;;;;;;5088382;28;20201;-75
2022/03/05 11:14:27;;;;;;;0.75;0.75;;;8.60;99.90;;;;;;5069905;28;20585;-75
2022/03/05 11:16:53;;;;;;;1.00;1.00;;;8.60;99.90;;;;;;5089369;28;20224;-75
2022/03/05 11:19:18;;;;;;;17.83;2.70;;;8.80;99.90;;;;;;5089001;28;20230;-75
2022/03/05 11:21:44;;;;;;;0.95;0.95;;;9.00;99.90;;;;;;5069559;28;20739;-76
2022/03/05 11:24:19;;;;;;;0.70;0.70;;;9.10;99.90;;;;;;5094717;28;20277;-76
2022/03/05 11:26:49;;;;;;;0.73;0.73;;;9.40;99.90;;;;;;5090310;28;20243;-77
2022/03/05 11:29:27;;;;;;;0.60;0.60;;;9.60;99.90;;;;;;5109946;28;20200;-77
2022/03/05 11:32:10;;;;;;;0.60;0.60;;;9.80;99.90;;;;;;5109711;28;20203;-75
2022/03/05 11:34:46;;;;;;;0.70;0.70;;;9.70;99.70;;;;;;5092801;28;20249;-76
2022/03/05 11:37:29;;;;;;;0.60;0.60;;;9.60;99.90;;;;;;5076338;28;20289;-77
2022/03/05 11:39:55;;;;;;;0.70;0.70;;;9.50;98.30;;;;;;5084452;28;20196;-77
2022/03/05 11:42:32;;;;;;;0.63;0.63;;;9.60;98.40;;;;;;5078822;28;20207;-77
2022/03/05 11:45:02;;;;;;;0.60;0.60;;;9.40;98.30;;;;;;5092459;28;20263;-79
2022/03/05 11:47:31;;;;;;;0.60;0.60;;;8.90;99.30;;;;;;5097229;28;20739;-81
2022/03/05 11:50:00;;;;;;;0.70;0.70;;;9.00;97.70;;;;;;5095543;28;20267;-78
2022/03/05 11:52:41;;;;;;;0.70;0.70;;;8.80;97.90;;;;;;5092098;28;20261;-80
2022/03/05 11:55:13;;;;;;;0.60;0.60;;;9.10;97.40;;;;;;5107360;28;20271;-79
2022/03/05 11:57:42;;;;;;;0.75;0.75;;;9.40;98.40;;;;;;5096630;28;20208;-77
2022/03/05 12:00:09;;;;;;;0.70;0.70;;;9.50;96.50;;;;;;5090212;28;20264;-77
2022/03/05 12:02:45;;;;;;;2.88;1.25;;;9.60;96.50;;;;;;5108148;28;20261;-78
2022/03/05 12:05:44;;;;;;;0.65;0.65;;;9.60;96.70;;;;;;5090496;28;20214;-77
2022/03/05 12:08:22;;;;;;;0.70;0.70;;;9.80;95.50;;;;;;5108337;28;20429;-77
2022/03/05 12:11:13;;;;;;;0.70;0.70;;;9.80;95.90;;;;;;5089294;28;20685;-77
2022/03/05 12:13:41;;;;;;;0.63;0.63;;;9.50;95.30;;;;;;5109100;28;20230;-78
2022/03/05 12:16:18;;;;;;;0.70;0.70;;;9.40;95.90;;;;;;5099599;28;20543;-78
2022/03/05 12:18:46;;;;;;;0.65;0.65;;;9.40;96.00;;;;;;5091123;28;20294;-78
2022/03/05 12:21:12;;;;;;;0.70;0.70;;;9.20;96.10;;;;;;5091130;28;20191;-77
2022/03/05 12:23:38;;;;;;;0.70;0.70;;;9.30;95.90;;;;;;5106241;28;20688;-76
2022/03/05 12:26:05;;;;;;;0.80;0.80;;;9.40;95.00;;;;;;5106778;28;20595;-75
2022/03/05 12:28:42;;;;;;;0.60;0.60;;;9.20;96.00;;;;;;5082986;28;20683;-74
2022/03/05 12:31:27;;;;;;;0.70;0.70;;;9.50;96.10;;;;;;5083525;28;20219;-76
2022/03/05 12:33:53;;;;;;;0.70;0.70;;;9.50;95.10;;;;;;5089513;28;20239;-75
2022/03/05 12:36:20;;;;;;;8.18;1.25;;;9.40;94.90;;;;;;5107494;28;20208;-74
2022/03/05 12:38:57;;;;;;;0.60;0.60;;;9.30;95.20;;;;;;5108169;28;20205;-73
2022/03/05 12:41:25;;;;;;;0.80;0.80;;;9.30;95.40;;;;;;5086516;28;20743;-74
2022/03/05 12:43:51;;;;;;;1.02;1.00;;;9.20;95.40;;;;;;5088563;28;20203;-74
2022/03/05 12:46:17;;;;;;;1.00;0.93;;;9.20;95.00;;;;;;5093155;28;20270;-74
2022/03/05 12:48:42;;;;;;;0.60;0.60;;;9.50;94.30;;;;;;5106743;28;20231;-74
2022/03/05 12:51:08;;;;;;;0.88;0.75;;;9.40;94.00;;;;;;5090179;28;20200;-74
2022/03/05 12:53:35;;;;;;;0.68;0.68;;;9.10;94.80;;;;;;5106805;28;20241;-75
2022/03/05 12:56:03;;;;;;;0.60;0.60;;;9.10;94.10;;;;;;5107417;28;20200;-73